createdAt,value
2018-11-03T00:02:20.965Z,25.63
2018-11-03T00:07:25.405Z,26.97
2018-11-03T00:12:29.852Z,26.40
2018-11-03T00:17:34.314Z,27.00
2018-11-03T00:22:38.794Z,27.53
2018-11-03T00:27:43.232Z,28.70
2018-11-03T00:32:47.696Z,27.03
2018-11-03T00:37:52.150Z,28.97
2018-11-03T00:42:56.816Z,31.53
2018-11-03T00:48:01.057Z,31.70
2018-11-03T00:53:06.311Z,32.57
2018-11-03T00:58:10.832Z,31.23
2018-11-03T01:03:15.296Z,29.17
2018-11-03T01:08:19.738Z,29.43
2018-11-03T01:13:24.197Z,27.80
2018-11-03T01:18:28.613Z,28.60
2018-11-03T01:23:33.052Z,27.98
2018-11-03T01:28:37.496Z,28.83
2018-11-03T01:33:41.952Z,30.17
2018-11-03T01:38:46.417Z,29.17
2018-11-03T01:43:50.849Z,27.60
2018-11-03T01:48:55.287Z,27.90
2018-11-03T01:53:59.724Z,31.20
2018-11-03T01:59:04.253Z,30.87
2018-11-03T02:04:09.372Z,31.30
2018-11-03T02:09:13.868Z,31.90
2018-11-03T02:14:18.528Z,31.80
2018-11-03T02:19:23.341Z,29.47
2018-11-03T02:24:28.232Z,28.13
2018-11-03T02:29:32.814Z,29.50
2018-11-03T02:34:37.273Z,26.60
2018-11-03T02:39:41.689Z,26.87
2018-11-03T02:44:46.145Z,27.43
2018-11-03T02:49:50.601Z,27.03
2018-11-03T02:54:55.131Z,26.17
2018-11-03T02:59:59.582Z,24.90
2018-11-03T03:05:04.211Z,22.73
2018-11-03T03:10:10.920Z,24.40
2018-11-03T03:15:15.450Z,25.60
2018-11-03T03:20:19.925Z,25.37
2018-11-03T03:25:24.389Z,26.12
2018-11-03T03:30:28.884Z,24.70
2018-11-03T03:35:33.475Z,24.03
2018-11-03T03:40:38.005Z,24.83
2018-11-03T03:45:42.447Z,25.00
2018-11-03T03:50:46.985Z,23.57
2018-11-03T03:55:51.518Z,23.27
2018-11-03T04:00:55.973Z,23.67
2018-11-03T04:06:00.489Z,23.97
2018-11-03T04:11:05.316Z,22.27
2018-11-03T04:16:09.880Z,22.40
2018-11-03T04:21:21.493Z,20.87
2018-11-03T04:26:26.901Z,18.80
2018-11-03T04:31:31.373Z,18.40
2018-11-03T04:36:35.812Z,20.00
2018-11-03T04:41:40.229Z,22.70
2018-11-03T04:46:44.827Z,21.37
2018-11-03T04:51:49.256Z,20.70
2018-11-03T04:56:53.672Z,21.03
2018-11-03T05:01:58.208Z,21.03
2018-11-03T05:07:02.771Z,19.87
2018-11-03T05:12:07.227Z,21.43
2018-11-03T05:17:11.789Z,20.97
2018-11-03T05:22:16.251Z,20.70
2018-11-03T05:27:20.814Z,19.47
2018-11-03T05:32:25.336Z,19.20
2018-11-03T05:37:29.864Z,19.10
2018-11-03T05:42:34.276Z,19.27
2018-11-03T05:47:38.749Z,19.97
2018-11-03T05:52:43.264Z,19.77
2018-11-03T05:57:47.829Z,20.90
2018-11-03T06:02:52.349Z,20.37
2018-11-03T06:07:57.057Z,19.97
2018-11-03T06:13:01.498Z,20.43
2018-11-03T06:18:06.612Z,19.70
2018-11-03T06:23:11.206Z,19.97
2018-11-03T06:28:15.693Z,20.10
2018-11-03T06:33:21.541Z,17.90
2018-11-03T06:38:26.065Z,19.83
2018-11-03T06:43:30.622Z,19.57
2018-11-03T06:48:35.145Z,19.97
2018-11-03T06:53:39.583Z,20.53
2018-11-03T06:58:44.009Z,20.13
2018-11-03T07:03:48.537Z,18.97
2018-11-03T07:08:53.063Z,20.10
2018-11-03T07:13:57.541Z,19.93
2018-11-03T07:19:02.047Z,20.03
2018-11-03T07:24:06.480Z,19.97
2018-11-03T07:29:10.960Z,21.47
2018-11-03T07:34:16.388Z,23.12
2018-11-03T07:39:20.815Z,23.20
2018-11-03T07:44:25.278Z,23.73
2018-11-03T07:49:29.747Z,20.87
2018-11-03T07:54:34.261Z,21.53
2018-11-03T07:59:38.647Z,20.33
2018-11-03T08:04:43.109Z,19.80
2018-11-03T08:09:47.556Z,19.23
2018-11-03T08:14:52.127Z,17.83
2018-11-03T08:19:57.644Z,18.37
2018-11-03T08:25:02.258Z,18.90
2018-11-03T08:30:10.039Z,20.10
2018-11-03T08:35:14.559Z,18.53
2018-11-03T08:40:19.008Z,18.57
2018-11-03T08:45:23.560Z,17.87
2018-11-03T08:50:28.097Z,15.63
2018-11-03T08:55:32.610Z,17.43
2018-11-03T09:00:37.064Z,14.87
2018-11-03T09:05:43.439Z,15.65
2018-11-03T09:10:47.953Z,14.93
2018-11-03T09:15:52.394Z,13.00
2018-11-03T09:20:56.873Z,15.13
2018-11-03T09:26:01.326Z,14.73
2018-11-03T09:31:06.034Z,14.17
2018-11-03T09:36:10.560Z,14.57
2018-11-03T09:41:15.021Z,15.83
2018-11-03T09:46:19.517Z,14.90
2018-11-03T09:51:24.062Z,15.90
2018-11-03T09:56:28.603Z,15.97
2018-11-03T10:01:33.009Z,15.60
2018-11-03T10:06:37.497Z,15.60
2018-11-03T10:11:42.026Z,15.00
2018-11-03T10:16:46.465Z,13.73
2018-11-03T10:21:50.900Z,12.97
2018-11-03T10:26:55.364Z,12.83
2018-11-03T10:31:59.811Z,13.30
2018-11-03T10:37:04.280Z,13.37
2018-11-03T10:42:08.907Z,13.35
2018-11-03T10:47:13.488Z,12.40
2018-11-03T10:52:17.920Z,13.17
2018-11-03T10:57:22.451Z,14.17
2018-11-03T11:02:32.018Z,12.10
2018-11-03T11:07:41.644Z,12.37
2018-11-03T11:12:49.189Z,12.60
2018-11-03T11:17:54.288Z,9.53
2018-11-03T11:22:58.769Z,8.40
2018-11-03T11:28:03.256Z,9.60
2018-11-03T11:33:10.240Z,10.00
2018-11-03T11:38:15.457Z,7.43
2018-11-03T11:43:20.035Z,9.07
2018-11-03T11:48:24.462Z,8.27
2018-11-03T11:53:28.900Z,7.47
2018-11-03T11:58:33.345Z,6.87
2018-11-03T12:03:37.773Z,7.00
2018-11-03T12:08:42.261Z,7.00
2018-11-03T12:13:46.784Z,6.45
2018-11-03T12:18:51.240Z,6.63
2018-11-03T12:23:55.716Z,6.10
2018-11-03T12:29:00.153Z,6.37
2018-11-03T12:34:04.809Z,7.13
2018-11-03T12:39:09.833Z,5.80
2018-11-03T12:44:14.320Z,5.50
2018-11-03T12:49:18.769Z,6.13
2018-11-03T12:54:23.331Z,6.23
2018-11-03T12:59:27.904Z,5.67
2018-11-03T13:04:32.228Z,6.90
2018-11-03T13:09:36.741Z,7.00
2018-11-03T13:14:41.125Z,8.17
2018-11-03T13:19:45.593Z,7.20
2018-11-03T13:24:50.077Z,6.47
2018-11-03T13:29:54.520Z,5.87
2018-11-03T13:34:59.113Z,6.17
2018-11-03T13:40:03.500Z,6.83
2018-11-03T13:45:08.831Z,6.77
2018-11-03T13:50:15.354Z,6.30
2018-11-03T13:55:19.844Z,5.90
2018-11-03T14:00:24.272Z,5.73
2018-11-03T14:05:28.700Z,5.70
2018-11-03T14:10:33.121Z,5.90
2018-11-03T14:15:37.610Z,5.30
2018-11-03T14:20:42.063Z,6.33
2018-11-03T14:25:46.620Z,5.33
2018-11-03T14:30:51.045Z,6.60
2018-11-03T14:35:55.504Z,10.03
2018-11-03T14:40:59.994Z,8.13
2018-11-03T14:46:04.413Z,6.10
2018-11-03T14:51:08.980Z,5.43
2018-11-03T14:56:13.442Z,5.07
2018-11-03T15:01:17.888Z,4.80
2018-11-03T15:06:22.314Z,4.13
2018-11-03T15:11:26.764Z,4.77
2018-11-03T15:16:31.185Z,4.20
2018-11-03T15:21:35.597Z,4.10
2018-11-03T15:26:40.016Z,4.50
2018-11-03T15:31:44.440Z,4.00
2018-11-03T15:36:48.977Z,5.00
2018-11-03T15:41:53.400Z,5.17
2018-11-03T15:46:57.935Z,5.07
2018-11-03T15:52:02.402Z,6.60
2018-11-03T15:57:07.088Z,6.73
2018-11-03T16:02:11.505Z,6.00
2018-11-03T16:07:15.949Z,6.70
2018-11-03T16:12:20.525Z,7.90
2018-11-03T16:17:24.864Z,9.17
2018-11-03T16:22:29.356Z,12.23
2018-11-03T16:27:33.818Z,14.87
2018-11-03T16:32:38.424Z,16.47
2018-11-03T16:37:43.220Z,15.67
2018-11-03T16:42:47.681Z,13.23
2018-11-03T16:47:52.103Z,10.67
2018-11-03T16:52:56.516Z,9.57
2018-11-03T16:58:00.921Z,9.73
2018-11-03T17:03:05.338Z,9.37
2018-11-03T17:08:09.828Z,8.37
2018-11-03T17:13:14.329Z,9.63
2018-11-03T17:18:18.740Z,7.97
2018-11-03T17:29:53.509Z,7.37
2018-11-03T17:34:57.937Z,8.40
2018-11-03T17:40:02.351Z,9.03
2018-11-03T17:45:07.677Z,8.67
2018-11-03T17:50:13.456Z,8.40
2018-11-03T17:55:17.897Z,12.37
2018-11-03T18:00:24.822Z,60.47
2018-11-03T18:05:29.060Z,50.07
2018-11-03T18:10:33.537Z,27.50
2018-11-03T18:15:37.944Z,19.03
2018-11-03T18:20:42.394Z,16.90
2018-11-03T18:25:46.869Z,13.30
2018-11-03T18:30:51.316Z,12.40
2018-11-03T18:35:55.717Z,12.50
2018-11-03T18:41:00.156Z,12.43
2018-11-03T18:46:04.625Z,11.43
2018-11-03T18:51:09.033Z,13.60
2018-11-03T18:56:13.497Z,10.33
2018-11-03T19:01:17.920Z,11.57
2018-11-03T19:06:22.475Z,16.80
2018-11-03T19:11:26.891Z,19.03
2018-11-03T19:16:31.453Z,26.27
2018-11-03T19:21:35.887Z,27.67
2018-11-03T19:26:40.541Z,32.30
2018-11-03T19:31:44.953Z,30.53
2018-11-03T19:36:49.364Z,31.97
2018-11-03T19:41:53.931Z,33.70
2018-11-03T19:46:58.329Z,34.00
2018-11-03T19:52:02.813Z,33.43
2018-11-03T19:57:07.325Z,34.37
2018-11-03T20:02:11.860Z,34.03
2018-11-03T20:07:16.329Z,33.90
2018-11-03T20:12:20.756Z,33.13
2018-11-03T20:17:25.291Z,29.80
2018-11-03T20:22:29.740Z,28.20
2018-11-03T20:27:34.161Z,24.00
2018-11-03T20:32:38.669Z,19.90
2018-11-03T20:37:43.284Z,23.83
2018-11-03T20:42:47.832Z,23.53
2018-11-03T20:47:52.474Z,26.17
2018-11-03T20:52:57.011Z,26.20
2018-11-03T20:58:01.429Z,25.70
2018-11-03T21:03:05.945Z,20.00
2018-11-03T21:08:10.441Z,18.40
2018-11-03T21:13:14.898Z,21.33
2018-11-03T21:18:19.332Z,23.07
2018-11-03T21:23:23.810Z,20.63
2018-11-03T21:28:28.314Z,20.30
2018-11-03T21:33:32.960Z,20.13
2018-11-03T21:38:37.493Z,19.00
2018-11-03T21:43:41.881Z,18.33
2018-11-03T21:48:46.308Z,18.10
2018-11-03T21:53:50.740Z,17.33
2018-11-03T21:58:55.269Z,16.97
2018-11-03T22:03:59.705Z,16.17
2018-11-03T22:09:05.492Z,15.00
2018-11-03T22:14:09.890Z,15.40
2018-11-03T22:19:14.293Z,15.70
2018-11-03T22:24:18.823Z,15.73
2018-11-03T22:29:23.228Z,15.80
2018-11-03T22:34:27.670Z,17.63
2018-11-03T22:39:32.088Z,18.40
2018-11-03T22:44:36.668Z,18.70
2018-11-03T22:49:41.085Z,17.87
2018-11-03T22:54:45.566Z,18.03
2018-11-03T22:59:49.982Z,17.20
2018-11-03T23:04:54.481Z,17.57
2018-11-03T23:09:58.996Z,16.83
2018-11-03T23:15:03.469Z,16.37
2018-11-03T23:20:11.691Z,16.20
2018-11-03T23:25:16.092Z,15.93
2018-11-03T23:30:20.513Z,15.40
2018-11-03T23:35:24.978Z,16.13
2018-11-03T23:40:29.446Z,16.87
2018-11-03T23:45:33.908Z,16.97
2018-11-03T23:50:38.317Z,17.70
2018-11-03T23:55:42.902Z,16.30
